createdAt,value
2022-10-17T00:04:29.512Z,99647.59
2022-10-17T00:14:57.069Z,99658.99
2022-10-17T00:25:24.700Z,99662.71
2022-10-17T00:35:52.274Z,99672.55
2022-10-17T00:46:20.500Z,99674.55
2022-10-17T00:56:49.957Z,99681.42
2022-10-17T01:07:17.686Z,99681.97
2022-10-17T01:17:56.614Z,99679.55
2022-10-17T01:39:24.263Z,99684.60
2022-10-17T01:49:57.985Z,99688.81
2022-10-17T02:00:27.962Z,99690.06
2022-10-17T02:11:00.781Z,99683.08
2022-10-17T02:21:37.863Z,99681.88
2022-10-17T02:32:10.158Z,99689.36
2022-10-17T02:42:38.560Z,99686.23
2022-10-17T02:53:10.676Z,99686.05
2022-10-17T03:03:38.265Z,99700.69
2022-10-17T03:14:06.057Z,99718.14
2022-10-17T03:24:33.602Z,99724.41
2022-10-17T03:35:01.153Z,99725.77
2022-10-17T03:45:28.698Z,99739.81
2022-10-17T03:55:56.267Z,99743.83
2022-10-17T04:06:24.654Z,99753.02
2022-10-17T04:16:53.651Z,99753.00
2022-10-17T04:27:21.192Z,99758.27
2022-10-17T04:37:48.686Z,99766.11
2022-10-17T04:48:16.247Z,99770.48
2022-10-17T04:58:44.822Z,99770.96
2022-10-17T05:09:12.389Z,99763.98
2022-10-17T05:19:39.992Z,99771.11
2022-10-17T05:30:09.013Z,99783.11
2022-10-17T05:40:36.706Z,99790.67
2022-10-17T05:51:06.949Z,99797.52
2022-10-17T06:01:34.286Z,99805.91
2022-10-17T06:12:01.557Z,99810.30
2022-10-17T06:22:29.180Z,99827.25
2022-10-17T06:32:57.081Z,99831.64
2022-10-17T06:43:27.761Z,99838.36
2022-10-17T06:53:55.438Z,99850.02
2022-10-17T07:04:22.891Z,99866.20
2022-10-17T07:14:50.610Z,99880.52
2022-10-17T07:25:18.212Z,99872.70
2022-10-17T07:35:45.491Z,99882.10
2022-10-17T07:46:13.030Z,99881.39
2022-10-17T07:56:40.474Z,99884.46
2022-10-17T08:07:22.949Z,99879.41
2022-10-17T08:17:52.227Z,99878.55
2022-10-17T08:28:17.953Z,99876.78
2022-10-17T08:38:51.623Z,99893.27
2022-10-17T08:49:30.636Z,99892.23
2022-10-17T08:59:58.224Z,99894.94
2022-10-17T09:10:35.037Z,99891.09
2022-10-17T09:21:11.006Z,99892.46
2022-10-17T09:31:45.236Z,99884.32
2022-10-17T09:42:17.421Z,99879.17
2022-10-17T09:52:47.899Z,99881.06
2022-10-17T10:03:19.261Z,99879.98
2022-10-17T10:13:48.410Z,99878.71
2022-10-17T10:24:16.308Z,99879.41
2022-10-17T10:34:51.825Z,99880.51
2022-10-17T10:45:43.283Z,99873.85
2022-10-17T10:56:14.436Z,99869.17
2022-10-17T11:06:45.587Z,99858.06
2022-10-17T11:17:22.954Z,99855.36
2022-10-17T11:27:50.245Z,99848.77
2022-10-17T11:38:23.302Z,99844.29
2022-10-17T11:49:03.478Z,99835.82
2022-10-17T11:59:59.177Z,99833.43
2022-10-17T12:10:38.397Z,99827.54
2022-10-17T12:21:05.940Z,99816.94
2022-10-17T12:31:34.273Z,99814.96
2022-10-17T12:42:01.733Z,99811.77
2022-10-17T13:03:28.068Z,99800.60
2022-10-17T13:26:16.556Z,99806.92
2022-10-17T13:36:48.870Z,99805.33
2022-10-17T13:47:25.868Z,99796.41
2022-10-17T13:57:52.593Z,99793.63
2022-10-17T14:08:23.471Z,99792.23
2022-10-17T14:18:53.141Z,99790.73
2022-10-17T14:29:25.393Z,99789.17
2022-10-17T14:39:55.192Z,99791.55
2022-10-17T14:50:28.307Z,99790.50
2022-10-17T15:00:55.591Z,99792.20
2022-10-17T15:11:23.022Z,99792.69
2022-10-17T15:21:50.283Z,99793.30
2022-10-17T15:32:18.108Z,99794.81
2022-10-17T15:42:45.828Z,99793.65
2022-10-17T15:53:15.357Z,99793.10
2022-10-17T16:03:42.988Z,99795.02
2022-10-17T16:14:13.324Z,99803.21
2022-10-17T16:24:40.629Z,99800.73
2022-10-17T16:35:10.149Z,99804.09
2022-10-17T16:45:38.732Z,99816.73
2022-10-17T16:56:07.640Z,99819.31
2022-10-17T17:06:35.259Z,99820.19
2022-10-17T17:17:02.597Z,99827.91
2022-10-17T17:27:31.498Z,99823.06
2022-10-17T17:37:59.318Z,99820.83
2022-10-17T17:48:26.630Z,99818.45
2022-10-17T17:58:59.502Z,99815.45
2022-10-17T18:09:27.738Z,99806.86
2022-10-17T18:19:55.145Z,99803.97
2022-10-17T18:30:25.502Z,99802.58
2022-10-17T18:41:05.348Z,99814.46
2022-10-17T18:51:32.755Z,99820.98
2022-10-17T19:02:01.216Z,99815.02
2022-10-17T19:12:28.707Z,99812.29
2022-10-17T19:22:55.935Z,99810.90
2022-10-17T19:33:23.283Z,99811.49
2022-10-17T19:43:50.557Z,99811.98
2022-10-17T19:54:20.331Z,99817.27
2022-10-17T20:04:54.559Z,99817.70
2022-10-17T20:15:33.889Z,99810.17
2022-10-17T20:26:18.815Z,99809.45
2022-10-17T20:36:50.764Z,99809.98
2022-10-17T20:47:40.036Z,99810.30
2022-10-17T20:58:05.469Z,99810.05
2022-10-17T21:08:33.035Z,99805.59
2022-10-17T21:19:01.233Z,99804.27
2022-10-17T21:29:28.842Z,99802.73
2022-10-17T21:39:56.347Z,99797.77
2022-10-17T21:50:23.643Z,99797.30
2022-10-17T22:00:50.894Z,99789.10
2022-10-17T22:11:20.522Z,99783.54
2022-10-17T22:21:47.817Z,99782.66
2022-10-17T22:32:19.961Z,99780.05
2022-10-17T22:42:49.599Z,99771.86
2022-10-17T22:53:23.238Z,99765.05
2022-10-17T23:03:51.672Z,99764.70
2022-10-17T23:14:19.210Z,99762.78
2022-10-17T23:24:46.592Z,99754.77
2022-10-17T23:35:13.961Z,99751.95
2022-10-17T23:45:41.483Z,99745.17
2022-10-17T23:56:10.438Z,99748.48
